createdAt,value
2022-10-01T00:03:27.683Z,4.07
2022-10-01T00:33:32.835Z,3.83
2022-10-01T01:03:37.063Z,3.00
2022-10-01T01:33:44.568Z,3.20
2022-10-01T02:03:48.586Z,3.30
2022-10-01T02:33:55.147Z,4.00
2022-10-01T03:34:03.112Z,7.93
2022-10-01T04:04:07.570Z,8.05
2022-10-01T04:34:11.609Z,7.00
2022-10-01T05:04:15.762Z,7.53
2022-10-01T05:34:19.994Z,6.63
2022-10-01T06:04:24.182Z,6.13
2022-10-01T06:34:28.339Z,3.53
2022-10-01T07:04:32.491Z,3.25
2022-10-01T07:34:37.472Z,1.50
2022-10-01T08:04:58.991Z,2.00
2022-10-01T08:35:04.783Z,1.92
2022-10-01T09:05:20.151Z,0.90
2022-10-01T09:35:35.080Z,2.05
2022-10-01T10:05:44.962Z,1.63
2022-10-01T10:35:58.546Z,1.10
2022-10-01T11:06:04.746Z,1.98
2022-10-01T11:36:16.525Z,5.22
2022-10-01T12:06:25.281Z,3.05
2022-10-01T12:36:39.749Z,2.90
2022-10-01T13:06:55.065Z,4.93
2022-10-01T14:07:17.326Z,4.78
2022-10-01T14:37:21.701Z,8.55
2022-10-01T15:07:29.075Z,6.60
2022-10-01T15:37:35.150Z,3.90
2022-10-01T16:07:40.273Z,8.05
2022-10-01T16:37:45.342Z,6.15
2022-10-01T17:07:49.593Z,5.25
2022-10-01T17:37:53.690Z,5.10
2022-10-01T18:07:57.784Z,4.95
2022-10-01T18:38:04.647Z,5.55
2022-10-01T19:08:17.862Z,7.25
2022-10-01T19:38:25.142Z,7.85
2022-10-01T20:08:36.259Z,7.45
2022-10-01T20:38:43.684Z,9.18
2022-10-01T21:08:52.354Z,5.50
2022-10-01T21:39:01.119Z,6.88
2022-10-01T22:09:09.083Z,6.95
2022-10-01T22:39:19.006Z,4.05
2022-10-01T23:09:28.824Z,4.10
2022-10-01T23:39:42.390Z,11.25
